East Williamson, New York
Current Conditions -  °F | °C
As of 9:54 AM on Sunday 21 Dec 2014 (Local Time) from KROC Reporting Station
Broken Clouds Broken Clouds  
Wind Chill: 24°   Ceiling: 8000
Heat Index: 30°   Visibility: 10mi
Dew Point: 24°   Wind: 6mph
Humidity: 79%   Direction: 250°WSW
Pressure: 30.33"   Gusts: NA
Location:  43.23°N, 77.15°W
Report Text: KROC 211454Z 25005KT 10SM BKN080 BKN200 M01/M04 A3033 RMK AO2 SLP280 T10111044 51011
Loading
Personal Weather Stations






























Interactive Weather Map New forecast layout! Learn more

10-Day Weather Forecast

Advertisements
Track Severe Weather on mobile